Time;durP1;ratioP1;P1;durP2;ratioP2;P2;SDS_P1;SDS_P2;PMS_P1;PMS_P2;Temp;Humidity;BMP_temperature;BMP_pressure;BME280_temperature;BME280_humidity;BME280_pressure;Samples;Min_cycle;Max_cycle;Signal;HPM_P1;HPM_P2
2022/08/24 07:43:58;;;;;;;0.00;0.00;;;25.50;74.40;;;;;;5153989;27;20439;-86
2022/08/24 07:46:24;;;;;;;0.10;0.10;;;25.40;72.10;;;;;;5151306;27;20119;-81
2022/08/24 07:48:50;;;;;;;0.10;0.10;;;25.40;71.80;;;;;;5151609;27;20019;-89
2022/08/24 07:51:18;;;;;;;26.52;12.35;;;25.30;72.20;;;;;;5150055;27;20019;-84
2022/08/24 07:53:45;;;;;;;17.35;10.02;;;25.30;70.50;;;;;;5152342;27;20037;-87
2022/08/24 07:56:11;;;;;;;24.27;14.93;;;25.30;73.20;;;;;;5153198;27;20530;-87
2022/08/24 07:58:37;;;;;;;27.30;14.07;;;25.20;72.70;;;;;;5151841;27;20435;-87
2022/08/24 08:01:04;;;;;;;15.85;9.45;;;25.10;73.60;;;;;;5152149;27;20019;-89
2022/08/24 08:03:33;;;;;;;9.95;4.72;;;25.00;74.00;;;;;;5150170;27;20101;-77
2022/08/24 08:06:03;;;;;;;5.47;3.67;;;25.00;73.10;;;;;;5151892;27;20380;-76
2022/08/24 08:08:31;;;;;;;2.35;1.63;;;24.90;71.10;;;;;;5151696;27;20047;-76
2022/08/24 08:10:57;;;;;;;1.23;0.95;;;24.90;73.70;;;;;;5152222;27;20026;-76
2022/08/24 08:13:23;;;;;;;1.52;1.10;;;24.90;73.20;;;;;;5150748;27;20362;-77
2022/08/24 08:15:49;;;;;;;0.80;0.80;;;24.90;73.40;;;;;;5152241;27;20035;-77
2022/08/24 08:18:15;;;;;;;0.70;0.70;;;24.90;74.40;;;;;;5152629;27;20023;-73
2022/08/24 08:20:41;;;;;;;3.92;1.52;;;24.90;74.50;;;;;;5153129;27;20019;-87
2022/08/24 08:25:56;;;;;;;1.48;1.30;;;24.90;75.80;;;;;;5152393;27;20389;-89
2022/08/24 08:28:23;;;;;;;1.97;1.67;;;24.90;74.00;;;;;;5151560;27;20026;-85
2022/08/24 08:30:49;;;;;;;0.45;0.45;;;24.90;71.90;;;;;;5150761;27;20248;-87
2022/08/24 08:33:15;;;;;;;1.55;0.30;;;24.90;73.90;;;;;;5151382;27;20029;-89
2022/08/24 08:35:43;;;;;;;0.75;0.65;;;24.90;74.30;;;;;;5152567;27;20027;-90
2022/08/24 08:38:09;;;;;;;0.55;0.55;;;24.90;71.90;;;;;;5152171;27;20026;-89
2022/08/24 08:40:44;;;;;;;0.28;0.20;;;24.90;72.50;;;;;;5152070;27;20110;-85
2022/08/24 08:43:10;;;;;;;1.20;1.10;;;25.00;74.00;;;;;;5150864;27;20055;-83
2022/08/24 08:45:46;;;;;;;0.45;0.35;;;25.00;72.60;;;;;;5150327;27;20019;-83
2022/08/24 08:48:26;;;;;;;0.00;0.00;;;25.00;71.80;;;;;;5151734;27;20027;-83
2022/08/24 08:51:10;;;;;;;0.10;0.10;;;25.00;72.40;;;;;;5151516;27;20031;-84
2022/08/24 08:53:44;;;;;;;0.22;0.22;;;25.00;72.20;;;;;;5145821;27;20102;-82
2022/08/24 08:56:34;;;;;;;0.22;0.22;;;25.00;73.20;;;;;;5135025;27;20035;-82
2022/08/24 08:59:16;;;;;;;0.45;0.45;;;25.00;73.30;;;;;;5130982;27;20031;-81
2022/08/24 09:02:04;;;;;;;0.22;0.22;;;25.10;74.10;;;;;;5137716;27;20047;-83
2022/08/24 09:05:14;;;;;;;0.63;0.32;;;25.10;74.50;;;;;;5135603;27;20110;-82
2022/08/24 09:07:55;;;;;;;0.00;0.00;;;25.10;73.20;;;;;;5126514;27;20485;-80
2022/08/24 09:10:32;;;;;;;0.17;0.17;;;25.10;76.40;;;;;;5137402;27;20023;-81
2022/08/24 09:13:01;;;;;;;0.00;0.00;;;25.10;74.60;;;;;;5135471;27;20038;-81
2022/08/24 09:15:35;;;;;;;0.13;0.13;;;25.10;72.50;;;;;;5135461;27;20035;-81
2022/08/24 09:18:44;;;;;;;0.00;0.00;;;25.10;71.30;;;;;;5134707;27;20054;-81
2022/08/24 09:21:18;;;;;;;0.03;0.03;;;25.20;70.10;;;;;;5132192;27;20062;-80
2022/08/24 09:24:11;;;;;;;0.13;0.13;;;25.20;73.30;;;;;;5123208;27;20044;-82
2022/08/24 09:26:49;;;;;;;0.10;0.10;;;25.20;73.10;;;;;;5136756;27;20022;-83
2022/08/24 09:29:22;;;;;;;0.10;0.10;;;25.20;71.60;;;;;;5135716;27;20027;-82
2022/08/24 09:32:04;;;;;;;0.00;0.00;;;25.20;71.20;;;;;;5135029;27;20477;-82
2022/08/24 09:35:02;;;;;;;0.00;0.00;;;25.20;72.00;;;;;;5136730;27;20469;-82
2022/08/24 09:37:33;;;;;;;0.20;0.20;;;25.20;72.70;;;;;;5135576;27;20133;-82
2022/08/24 09:40:17;;;;;;;0.15;0.15;;;25.30;72.70;;;;;;5136291;27;20019;-82
2022/08/24 09:42:51;;;;;;;0.00;0.00;;;25.30;74.20;;;;;;5135148;27;20528;-83
2022/08/24 09:46:02;;;;;;;0.32;0.32;;;25.30;72.80;;;;;;5136662;27;20027;-81
2022/08/24 09:48:35;;;;;;;0.00;0.00;;;25.30;73.60;;;;;;5111778;27;20141;-83
2022/08/24 09:51:31;;;;;;;0.00;0.00;;;25.40;73.00;;;;;;5133466;27;20103;-82
2022/08/24 09:54:17;;;;;;;0.10;0.10;;;25.40;72.40;;;;;;5134559;27;20027;-82
2022/08/24 09:56:43;;;;;;;0.03;0.00;;;25.40;73.00;;;;;;5135196;27;20363;-83
2022/08/24 09:59:15;;;;;;;0.00;0.00;;;25.40;73.40;;;;;;5134808;27;20030;-81
2022/08/24 10:01:52;;;;;;;0.00;0.00;;;25.40;73.60;;;;;;5134472;27;20044;-82
2022/08/24 10:04:31;;;;;;;0.00;0.00;;;25.40;74.90;;;;;;5136326;27;20084;-82
2022/08/24 10:07:21;;;;;;;0.03;0.03;;;25.50;73.50;;;;;;5133965;27;20521;-81
2022/08/24 10:09:59;;;;;;;0.00;0.00;;;25.40;74.10;;;;;;5135544;27;20031;-82
2022/08/24 10:12:50;;;;;;;0.10;0.10;;;25.40;73.30;;;;;;5120057;27;20106;-81
2022/08/24 10:15:31;;;;;;;0.10;0.10;;;25.50;73.50;;;;;;5134779;27;20067;-81
2022/08/24 10:18:05;;;;;;;0.10;0.10;;;25.50;73.80;;;;;;5134730;27;20061;-81
2022/08/24 10:20:37;;;;;;;0.00;0.00;;;25.60;74.30;;;;;;5133398;27;20019;-82
2022/08/24 10:23:33;;;;;;;0.80;0.80;;;25.60;74.10;;;;;;5135845;27;20083;-80
2022/08/24 10:26:18;;;;;;;0.00;0.00;;;25.60;74.30;;;;;;5135877;27;20027;-81
2022/08/24 10:29:15;;;;;;;0.08;0.08;;;25.60;74.70;;;;;;5135825;27;20019;-80
2022/08/24 10:31:47;;;;;;;0.20;0.20;;;25.60;75.20;;;;;;5133654;27;20046;-82
2022/08/24 10:34:37;;;;;;;0.00;0.00;;;25.60;73.70;;;;;;5125070;27;20548;-81
2022/08/24 10:37:12;;;;;;;0.63;0.32;;;25.60;74.90;;;;;;5124895;27;20026;-89
2022/08/24 10:40:04;;;;;;;2.97;2.78;;;25.70;72.90;;;;;;5135003;27;20015;-82
2022/08/24 10:46:25;;;;;;;23.80;10.88;;;25.70;74.40;;;;;;5133685;27;20122;-81
2022/08/24 10:48:51;;;;;;;16.52;10.50;;;25.70;71.20;;;;;;5133973;27;20110;-82
2022/08/24 10:51:55;;;;;;;16.40;7.80;;;25.80;73.30;;;;;;5134141;27;20468;-82
2022/08/24 10:54:22;;;;;;;6.60;3.45;;;25.80;75.30;;;;;;5132480;27;20476;-82
2022/08/24 10:57:03;;;;;;;3.15;2.95;;;25.80;73.20;;;;;;5131880;27;20054;-81
2022/08/24 10:59:44;;;;;;;3.65;2.40;;;25.80;73.50;;;;;;5135117;27;20185;-83
2022/08/24 11:02:31;;;;;;;2.97;2.08;;;25.80;74.90;;;;;;5135244;27;20027;-84
2022/08/24 11:04:59;;;;;;;1.27;1.02;;;25.80;74.60;;;;;;5135251;27;20043;-83
2022/08/24 11:07:27;;;;;;;1.80;1.30;;;25.80;74.40;;;;;;5135539;27;20396;-83
2022/08/24 11:09:57;;;;;;;0.15;0.15;;;25.80;73.50;;;;;;5135137;27;20034;-83
2022/08/24 11:12:49;;;;;;;0.75;0.70;;;25.90;74.20;;;;;;5119896;27;20030;-83
2022/08/24 11:15:23;;;;;;;1.52;0.95;;;25.90;74.60;;;;;;5111411;28;20035;-83
2022/08/24 11:18:07;;;;;;;2.50;2.40;;;25.90;73.50;;;;;;5117558;27;20024;-82
2022/08/24 11:20:41;;;;;;;2.35;1.95;;;26.00;73.20;;;;;;5134875;27;20033;-82
2022/08/24 11:23:20;;;;;;;3.00;2.22;;;26.00;73.50;;;;;;5134655;27;20103;-82
2022/08/24 11:26:00;;;;;;;1.08;1.08;;;26.00;74.60;;;;;;5114323;28;20019;-82
2022/08/24 11:28:40;;;;;;;1.17;1.15;;;26.00;73.30;;;;;;5121582;27;20015;-82
2022/08/24 11:31:18;;;;;;;;;;;26.10;73.10;;;;;;5154570;27;20023;-82
2022/08/24 11:33:45;;;;;;;0.75;0.75;;;26.10;74.00;;;;;;5151971;27;19967;-82
2022/08/24 11:36:18;;;;;;;0.22;0.22;;;26.10;74.20;;;;;;5134249;27;20016;-82
2022/08/24 11:38:45;;;;;;;0.43;0.43;;;26.10;73.00;;;;;;5127703;27;20031;-80
2022/08/24 11:41:20;;;;;;;0.10;0.10;;;26.10;73.60;;;;;;5133077;28;20019;-81
2022/08/24 11:44:26;;;;;;;0.25;0.25;;;26.10;74.60;;;;;;5134321;28;20046;-82
2022/08/24 11:47:04;;;;;;;0.13;0.13;;;26.10;74.80;;;;;;5133236;28;20019;-80
2022/08/24 11:50:00;;;;;;;0.93;0.68;;;26.20;73.50;;;;;;5132938;28;20028;-81
2022/08/24 11:52:57;;;;;;;0.00;0.00;;;26.20;73.80;;;;;;5134453;28;20054;-81
2022/08/24 11:56:03;;;;;;;0.13;0.13;;;26.20;74.30;;;;;;5134361;28;20040;-81
2022/08/24 11:58:50;;;;;;;0.50;0.50;;;26.20;71.50;;;;;;5132656;28;20039;-81
2022/08/24 12:01:45;;;;;;;1.05;0.98;;;26.20;72.90;;;;;;5133233;27;20553;-81
2022/08/24 12:04:31;;;;;;;0.77;0.77;;;26.20;72.90;;;;;;5134212;28;20525;-81
2022/08/24 12:07:06;;;;;;;2.88;2.65;;;26.30;74.30;;;;;;5134325;28;20422;-82
2022/08/24 12:09:46;;;;;;;5.78;5.22;;;26.30;73.80;;;;;;5134317;28;20042;-81
2022/08/24 12:12:47;;;;;;;15.95;11.18;;;26.30;73.30;;;;;;5133023;28;20114;-80
2022/08/24 12:15:34;;;;;;;16.30;12.07;;;26.30;74.00;;;;;;5041359;28;20037;-82
2022/08/24 12:18:08;;;;;;;13.90;11.40;;;26.40;73.50;;;;;;5114011;28;20023;-82
2022/08/24 12:20:36;;;;;;;20.63;14.27;;;26.40;73.40;;;;;;5112133;28;20533;-81
2022/08/24 12:23:07;;;;;;;20.48;15.43;;;26.40;74.90;;;;;;5113612;28;20032;-80
2022/08/24 12:28:30;;;;;;;17.55;12.45;;;26.40;72.20;;;;;;5124312;27;20111;-81
2022/08/24 12:31:05;;;;;;;12.90;10.18;;;26.50;72.20;;;;;;5138132;27;20043;-80
2022/08/24 12:33:35;;;;;;;10.05;7.47;;;26.50;72.10;;;;;;5127755;27;20030;-81
2022/08/24 12:36:06;;;;;;;11.68;6.28;;;26.50;71.10;;;;;;5118470;27;20058;-82
2022/08/24 12:38:37;;;;;;;4.72;4.13;;;26.50;72.80;;;;;;5136520;27;20027;-81
2022/08/24 12:41:37;;;;;;;2.42;2.22;;;26.50;71.70;;;;;;5136342;27;22082;-80
2022/08/24 12:44:11;;;;;;;;;;;26.50;72.10;;;;;;5122579;27;20366;-82
2022/08/24 12:46:38;;;;;;;1.30;0.73;;;26.50;72.10;;;;;;5125034;27;19915;-83
2022/08/24 12:49:24;;;;;;;1.30;1.15;;;26.60;72.80;;;;;;5137782;27;20015;-83
2022/08/24 12:52:17;;;;;;;0.45;0.45;;;26.60;73.30;;;;;;5137649;27;20019;-76
2022/08/24 12:55:15;;;;;;;0.50;0.50;;;26.60;72.20;;;;;;5137918;27;20577;-77
2022/08/24 12:57:53;;;;;;;0.43;0.20;;;26.60;71.70;;;;;;5125377;27;20031;-76
2022/08/24 13:00:27;;;;;;;1.13;0.80;;;26.60;71.80;;;;;;5137505;27;20026;-86
2022/08/24 13:03:03;;;;;;;1.40;0.32;;;26.70;71.10;;;;;;5135592;27;20031;-83
2022/08/24 13:05:45;;;;;;;1.58;1.45;;;26.70;71.80;;;;;;5116651;28;20023;-82
2022/08/24 13:08:20;;;;;;;2.80;2.45;;;26.70;71.50;;;;;;5118881;27;20019;-82
2022/08/24 13:11:04;;;;;;;3.20;2.90;;;26.70;71.50;;;;;;5135164;27;20027;-82
2022/08/24 13:14:04;;;;;;;3.63;3.33;;;26.80;71.90;;;;;;5134844;27;20031;-85
2022/08/24 13:16:50;;;;;;;4.18;2.95;;;26.80;72.10;;;;;;5137359;27;20038;-81
2022/08/24 13:19:22;;;;;;;3.20;1.83;;;26.80;72.80;;;;;;5137161;27;20456;-82
2022/08/24 13:22:08;;;;;;;3.35;3.15;;;26.80;70.70;;;;;;5135263;27;20023;-82
2022/08/24 13:24:34;;;;;;;1.67;1.23;;;26.80;70.40;;;;;;5136391;27;20481;-82
2022/08/24 13:27:17;;;;;;;2.10;1.98;;;26.80;70.30;;;;;;5134857;27;20154;-84
2022/08/24 13:30:26;;;;;;;1.70;1.60;;;26.80;68.70;;;;;;5137125;27;20027;-82
2022/08/24 13:33:01;;;;;;;1.52;1.42;;;26.80;69.30;;;;;;5135342;27;20023;-82
2022/08/24 13:35:39;;;;;;;7.63;2.45;;;26.80;71.00;;;;;;5135661;27;20034;-82
2022/08/24 13:38:26;;;;;;;2.47;2.03;;;26.80;70.90;;;;;;5135246;27;20473;-83
2022/08/24 13:41:16;;;;;;;0.25;0.25;;;26.90;70.60;;;;;;5134023;27;20027;-84
2022/08/24 13:43:50;;;;;;;0.63;0.50;;;26.90;69.10;;;;;;5135154;27;20039;-85
2022/08/24 13:46:36;;;;;;;3.72;0.35;;;26.90;69.40;;;;;;5136760;27;20023;-84
2022/08/24 13:49:46;;;;;;;0.55;0.43;;;26.90;69.00;;;;;;5112198;27;20034;-84
2022/08/24 13:52:20;;;;;;;0.03;0.03;;;26.90;67.50;;;;;;5129044;27;20042;-84
2022/08/24 13:55:05;;;;;;;0.13;0.10;;;26.90;71.60;;;;;;5135970;27;20042;-83
2022/08/24 13:57:44;;;;;;;0.40;0.35;;;27.00;71.10;;;;;;5137127;27;20079;-76
2022/08/24 14:00:14;;;;;;;0.17;0.13;;;27.00;69.80;;;;;;5137000;27;20037;-74
2022/08/24 14:02:49;;;;;;;0.13;0.13;;;27.00;71.10;;;;;;5134139;27;20395;-78
2022/08/24 14:05:55;;;;;;;0.00;0.00;;;27.00;72.20;;;;;;5134766;27;20059;-76
2022/08/24 14:08:49;;;;;;;0.00;0.00;;;27.00;70.20;;;;;;5136215;27;20019;-76
2022/08/24 14:11:18;;;;;;;0.00;0.00;;;27.00;69.10;;;;;;5136176;27;20023;-74
2022/08/24 14:14:06;;;;;;;0.00;0.00;;;27.00;71.10;;;;;;5134200;27;20026;-74
2022/08/24 14:19:47;;;;;;;0.00;0.00;;;27.00;68.50;;;;;;5136578;27;20037;-78
2022/08/24 14:22:31;;;;;;;0.10;0.10;;;27.00;69.00;;;;;;5133437;27;20027;-78
2022/08/24 14:25:11;;;;;;;0.00;0.00;;;27.10;68.40;;;;;;5126815;27;20061;-78
2022/08/24 14:28:09;;;;;;;0.00;0.00;;;27.10;70.20;;;;;;5136154;27;20015;-78
2022/08/24 14:30:39;;;;;;;0.00;0.00;;;27.10;70.10;;;;;;5135638;27;20061;-78
2022/08/24 14:33:30;;;;;;;0.00;0.00;;;27.10;70.60;;;;;;5133684;27;20031;-78
2022/08/24 14:36:16;;;;;;;0.22;0.17;;;27.00;69.50;;;;;;5134704;27;20038;-78
2022/08/24 14:38:59;;;;;;;0.00;0.00;;;27.10;69.50;;;;;;5134270;27;20057;-78
2022/08/24 14:41:45;;;;;;;0.00;0.00;;;27.10;71.00;;;;;;5136007;27;20106;-78
2022/08/24 14:44:13;;;;;;;0.38;0.38;;;27.00;71.20;;;;;;5134621;27;20122;-78
2022/08/24 14:46:50;;;;;;;0.00;0.00;;;27.10;70.70;;;;;;5135373;27;20033;-78
2022/08/24 14:49:22;;;;;;;0.03;0.03;;;27.10;71.10;;;;;;5135282;27;20019;-78
2022/08/24 14:52:13;;;;;;;0.00;0.00;;;27.10;70.90;;;;;;5133000;27;20055;-79
2022/08/24 14:54:58;;;;;;;0.30;0.20;;;27.10;71.00;;;;;;5134064;27;20023;-78
2022/08/24 14:57:29;;;;;;;0.20;0.20;;;27.10;70.70;;;;;;5135562;27;20023;-79
2022/08/24 14:59:58;;;;;;;0.00;0.00;;;27.10;71.10;;;;;;5133840;27;20100;-79
2022/08/24 15:03:01;;;;;;;0.03;0.03;;;27.10;71.50;;;;;;5132770;27;20030;-78
2022/08/24 15:05:51;;;;;;;0.20;0.20;;;27.10;71.00;;;;;;5135151;27;20511;-79
2022/08/24 15:08:41;;;;;;;0.00;0.00;;;27.10;70.90;;;;;;5134620;27;20422;-79
2022/08/24 15:11:12;;;;;;;0.20;0.00;;;27.10;71.10;;;;;;5134080;27;20053;-79
2022/08/24 15:13:44;;;;;;;0.00;0.00;;;27.10;70.90;;;;;;5133578;27;20019;-79
2022/08/24 15:16:17;;;;;;;0.00;0.00;;;27.10;71.50;;;;;;5133807;27;20026;-79
2022/08/24 15:18:59;;;;;;;0.00;0.00;;;27.00;70.80;;;;;;5133523;27;20064;-78
2022/08/24 15:21:44;;;;;;;0.00;0.00;;;27.00;71.20;;;;;;5129559;27;20438;-78
2022/08/24 15:24:24;;;;;;;0.20;0.20;;;27.00;71.00;;;;;;5129689;27;20388;-78
2022/08/24 15:27:01;;;;;;;;;;;27.00;71.30;;;;;;5134926;27;20019;-78
2022/08/24 15:29:32;;;;;;;0.63;0.60;;;27.00;71.40;;;;;;5133251;27;19907;-77
2022/08/24 15:32:08;;;;;;;3.55;1.15;;;27.00;71.00;;;;;;5134613;27;20027;-77
2022/08/24 15:34:42;;;;;;;0.17;0.17;;;27.00;72.00;;;;;;5133926;27;20015;-87
2022/08/24 15:37:09;;;;;;;0.43;0.43;;;26.90;70.70;;;;;;5135447;27;20046;-86
2022/08/24 15:39:36;;;;;;;0.10;0.10;;;27.00;70.60;;;;;;5134746;27;20410;-84
2022/08/24 15:42:23;;;;;;;0.13;0.13;;;27.00;72.90;;;;;;5119327;27;20047;-83
2022/08/24 15:44:50;;;;;;;0.85;0.43;;;26.90;71.20;;;;;;5114076;28;20388;-83
2022/08/24 15:47:24;;;;;;;0.00;0.00;;;26.90;71.50;;;;;;5114114;28;20024;-83
2022/08/24 15:49:55;;;;;;;0.00;0.00;;;26.90;70.70;;;;;;5114385;28;20019;-83
2022/08/24 15:52:45;;;;;;;0.00;0.00;;;26.80;70.90;;;;;;5130458;28;20023;-83
2022/08/24 15:55:37;;;;;;;0.00;0.00;;;26.80;71.70;;;;;;5134456;28;20030;-83
2022/08/24 15:58:30;;;;;;;0.00;0.00;;;26.80;71.00;;;;;;5134417;28;20030;-84
2022/08/24 16:04:06;;;;;;;2.30;1.92;;;26.70;71.90;;;;;;5135147;27;20115;-83
2022/08/24 16:06:32;;;;;;;6.68;5.60;;;26.70;72.00;;;;;;5138944;27;20031;-83
2022/08/24 16:09:11;;;;;;;13.32;9.68;;;26.70;72.90;;;;;;5138242;27;20487;-84
2022/08/24 16:11:57;;;;;;;24.45;15.75;;;26.60;71.60;;;;;;5138709;27;20011;-85
2022/08/24 16:14:46;;;;;;;22.27;13.23;;;26.60;70.30;;;;;;5138777;27;20076;-83
2022/08/24 16:17:36;;;;;;;27.25;18.52;;;26.60;72.00;;;;;;5137369;27;20067;-84
2022/08/24 16:20:12;;;;;;;36.22;20.33;;;26.50;72.00;;;;;;5134407;27;20035;-84
2022/08/24 16:22:51;;;;;;;27.52;14.20;;;26.50;71.40;;;;;;5138518;27;20449;-83
2022/08/24 16:25:18;;;;;;;22.00;15.15;;;26.50;72.00;;;;;;5138376;27;20022;-84
2022/08/24 16:28:02;;;;;;;23.48;11.35;;;26.50;73.70;;;;;;5137780;27;20362;-84
2022/08/24 16:30:36;;;;;;;21.55;10.30;;;26.40;69.70;;;;;;5138110;27;20030;-84
2022/08/24 16:33:02;;;;;;;9.25;5.78;;;26.40;71.60;;;;;;5133057;27;20084;-81
2022/08/24 16:35:31;;;;;;;14.25;9.35;;;26.30;70.80;;;;;;5132472;27;20100;-82
2022/08/24 16:37:58;;;;;;;24.65;14.10;;;26.40;71.20;;;;;;5137202;27;20497;-82
2022/08/24 16:40:26;;;;;;;41.47;23.33;;;26.40;71.00;;;;;;5138098;27;20031;-82
2022/08/24 16:42:55;;;;;;;57.10;29.52;;;26.40;71.60;;;;;;5135606;27;20035;-82
2022/08/24 16:45:22;;;;;;;59.35;28.17;;;26.30;70.50;;;;;;5137821;27;20015;-82
2022/08/24 16:47:49;;;;;;;33.47;17.80;;;26.30;71.70;;;;;;5136526;27;20118;-82
2022/08/24 16:50:17;;;;;;;25.70;15.63;;;26.20;72.00;;;;;;5137741;27;20023;-80
2022/08/24 16:52:44;;;;;;;14.50;8.60;;;26.20;73.80;;;;;;5135273;27;20036;-82
2022/08/24 16:55:10;;;;;;;20.52;10.63;;;26.20;71.90;;;;;;5137674;27;20042;-82
2022/08/24 16:57:37;;;;;;;12.57;6.22;;;26.10;69.20;;;;;;5137973;27;20029;-82
2022/08/24 17:00:14;;;;;;;3.38;2.63;;;26.10;70.70;;;;;;5137493;27;20098;-82
2022/08/24 17:02:40;;;;;;;8.82;3.40;;;26.00;69.80;;;;;;5137960;27;20380;-82
2022/08/24 17:05:06;;;;;;;2.42;1.85;;;26.00;69.40;;;;;;5136648;27;20407;-81
2022/08/24 17:07:33;;;;;;;2.83;2.55;;;26.00;70.40;;;;;;5137446;27;20440;-81
2022/08/24 17:10:03;;;;;;;0.80;0.80;;;26.00;69.00;;;;;;5136058;27;20015;-82
2022/08/24 17:12:30;;;;;;;;;;;26.00;67.90;;;;;;5136107;27;20469;-81
2022/08/24 17:14:57;;;;;;;5.10;1.40;;;25.90;69.60;;;;;;5136085;27;19910;-81
2022/08/24 17:17:24;;;;;;;2.05;0.75;;;25.90;67.20;;;;;;5136449;27;20031;-81
2022/08/24 17:19:53;;;;;;;0.25;0.25;;;25.90;67.30;;;;;;5137209;27;20027;-81
2022/08/24 17:22:22;;;;;;;0.57;0.57;;;25.80;67.00;;;;;;5137669;27;20453;-80
2022/08/24 17:24:48;;;;;;;0.00;0.00;;;25.80;68.00;;;;;;5134104;27;20028;-80
2022/08/24 17:27:15;;;;;;;0.63;0.63;;;25.80;67.80;;;;;;5137082;27;20046;-82
2022/08/24 17:29:43;;;;;;;0.35;0.35;;;25.70;66.70;;;;;;5137005;27;20342;-80
2022/08/24 17:32:09;;;;;;;0.15;0.15;;;25.70;68.50;;;;;;5135862;27;20031;-84
2022/08/24 17:34:37;;;;;;;7.97;1.88;;;25.70;67.20;;;;;;5136371;27;20020;-87
2022/08/24 17:37:04;;;;;;;3.25;2.47;;;25.80;67.70;;;;;;5135340;27;20023;-87
2022/08/24 17:39:30;;;;;;;7.53;4.20;;;25.80;70.40;;;;;;5136254;27;20030;-87
2022/08/24 17:41:57;;;;;;;21.35;11.18;;;25.80;70.90;;;;;;5135926;27;20047;-87
2022/08/24 17:44:30;;;;;;;37.85;13.48;;;25.90;71.40;;;;;;5134953;27;20015;-87
2022/08/24 17:46:59;;;;;;;33.40;17.70;;;25.90;71.20;;;;;;5136153;27;20057;-87
2022/08/24 17:49:25;;;;;;;32.83;19.80;;;26.00;71.80;;;;;;5135750;27;20031;-83
2022/08/24 17:51:52;;;;;;;21.08;13.07;;;25.90;66.30;;;;;;5136744;27;20088;-79
2022/08/24 17:54:18;;;;;;;25.30;9.18;;;25.90;65.50;;;;;;5137081;27;20112;-96
2022/08/24 17:56:49;;;;;;;5.78;4.22;;;25.90;67.40;;;;;;5136391;27;20073;-94
2022/08/24 17:59:22;;;;;;;4.15;2.28;;;25.90;68.50;;;;;;5136839;27;20458;-95
2022/08/24 18:01:50;;;;;;;4.95;2.50;;;25.90;69.80;;;;;;5136811;27;20107;-95
2022/08/24 18:04:17;;;;;;;13.82;6.28;;;25.80;69.90;;;;;;5135996;27;20027;-94
2022/08/24 18:06:47;;;;;;;18.83;11.88;;;25.80;70.30;;;;;;5136683;27;20016;-94
2022/08/24 18:09:21;;;;;;;24.90;10.00;;;25.90;67.80;;;;;;5135899;27;20015;-94
2022/08/24 18:11:47;;;;;;;17.38;7.82;;;25.90;69.80;;;;;;5136652;27;20092;-94
2022/08/24 18:14:13;;;;;;;18.63;6.90;;;25.90;70.40;;;;;;5135420;27;20469;-94
2022/08/24 18:16:41;;;;;;;10.32;7.38;;;25.90;69.90;;;;;;5136320;27;20027;-94
2022/08/24 18:19:12;;;;;;;21.50;9.43;;;25.90;70.70;;;;;;5134769;27;20023;-93
2022/08/24 18:21:43;;;;;;;14.05;8.30;;;25.90;70.60;;;;;;5115723;28;20024;-93
2022/08/24 18:24:09;;;;;;;19.75;7.47;;;25.90;70.60;;;;;;5115863;28;20119;-93
2022/08/24 18:26:36;;;;;;;25.92;7.43;;;25.90;70.40;;;;;;5114319;28;20055;-93
2022/08/24 18:29:13;;;;;;;17.38;5.00;;;25.90;70.70;;;;;;5115385;28;20019;-93
2022/08/24 18:31:40;;;;;;;11.43;4.32;;;26.00;71.30;;;;;;5134144;27;20043;-94
2022/08/24 18:34:12;;;;;;;5.13;3.10;;;25.90;71.30;;;;;;5133923;27;20031;-93
2022/08/24 18:36:38;;;;;;;7.97;3.40;;;26.00;71.10;;;;;;5136233;27;20072;-92
2022/08/24 18:39:04;;;;;;;4.35;3.42;;;25.90;71.00;;;;;;5135416;27;20385;-93
2022/08/24 18:41:34;;;;;;;3.03;2.65;;;25.90;70.90;;;;;;5133717;27;20054;-93
2022/08/24 18:44:03;;;;;;;6.20;3.95;;;26.00;70.80;;;;;;5135660;27;20094;-92
2022/08/24 18:46:30;;;;;;;4.07;2.30;;;25.90;70.10;;;;;;5135988;27;20023;-93
2022/08/24 18:48:57;;;;;;;1.77;1.52;;;26.00;71.20;;;;;;5134708;27;20015;-92
2022/08/24 18:51:23;;;;;;;3.60;2.05;;;25.90;70.00;;;;;;5134268;27;20046;-92
2022/08/24 18:53:58;;;;;;;0.57;0.57;;;26.00;70.50;;;;;;5135375;27;20031;-92
2022/08/24 18:56:24;;;;;;;2.53;2.28;;;25.90;71.70;;;;;;5134927;27;20015;-93
2022/08/24 18:58:50;;;;;;;3.55;1.92;;;25.90;70.40;;;;;;5131975;27;20027;-93
2022/08/24 19:01:20;;;;;;;0.43;0.43;;;25.90;70.70;;;;;;5135032;27;20034;-92
2022/08/24 19:03:46;;;;;;;2.60;1.35;;;26.00;70.70;;;;;;5133992;27;20023;-93
2022/08/24 19:06:14;;;;;;;1.73;1.55;;;25.90;69.80;;;;;;5134036;27;20023;-92
2022/08/24 19:08:40;;;;;;;0.10;0.10;;;26.00;70.00;;;;;;5135039;27;20030;-92
2022/08/24 19:11:06;;;;;;;0.52;0.52;;;25.90;70.40;;;;;;5134298;27;20019;-92
2022/08/24 19:13:33;;;;;;;0.60;0.60;;;25.90;71.20;;;;;;5134903;27;20118;-92
2022/08/24 19:15:59;;;;;;;0.20;0.20;;;26.00;71.00;;;;;;5135374;27;20106;-92
2022/08/24 19:18:25;;;;;;;0.50;0.50;;;26.00;72.20;;;;;;5134597;27;20027;-92
2022/08/24 19:20:54;;;;;;;0.32;0.32;;;26.00;70.70;;;;;;5134411;27;20026;-92
2022/08/24 19:23:31;;;;;;;0.38;0.38;;;26.00;70.60;;;;;;5134879;27;20031;-92
2022/08/24 19:25:59;;;;;;;0.05;0.05;;;26.00;70.50;;;;;;5134713;27;20392;-92
2022/08/24 19:28:25;;;;;;;0.45;0.20;;;26.00;70.80;;;;;;5133604;27;20057;-92
2022/08/24 19:31:00;;;;;;;0.28;0.28;;;25.90;70.60;;;;;;5133935;27;20496;-92
2022/08/24 19:33:32;;;;;;;0.08;0.08;;;25.90;70.20;;;;;;5134657;27;20023;-92
2022/08/24 19:36:04;;;;;;;0.17;0.10;;;25.90;69.30;;;;;;5135198;27;20038;-93
2022/08/24 19:38:30;;;;;;;0.00;0.00;;;25.90;69.70;;;;;;5133801;27;20499;-92
2022/08/24 19:40:57;;;;;;;0.08;0.08;;;25.90;69.50;;;;;;5134975;27;20039;-93
2022/08/24 19:43:28;;;;;;;0.00;0.00;;;25.90;69.60;;;;;;5134465;27;20381;-92
2022/08/24 19:46:01;;;;;;;0.00;0.00;;;25.90;69.30;;;;;;5135352;28;20087;-92
2022/08/24 19:48:31;;;;;;;0.30;0.30;;;25.90;69.20;;;;;;5131102;28;20024;-92
2022/08/24 19:50:58;;;;;;;0.10;0.10;;;25.90;68.90;;;;;;5134246;28;20019;-92
2022/08/24 19:53:28;;;;;;;0.00;0.00;;;25.90;68.80;;;;;;5134133;28;20116;-92
2022/08/24 19:55:54;;;;;;;0.03;0.03;;;25.90;68.60;;;;;;5134416;28;20030;-92
2022/08/24 19:58:26;;;;;;;0.10;0.10;;;25.90;68.70;;;;;;5131657;28;20520;-92
2022/08/24 20:01:01;;;;;;;0.45;0.28;;;25.80;68.50;;;;;;5133947;28;20076;-92
2022/08/24 20:03:27;;;;;;;1.35;0.60;;;25.80;68.70;;;;;;5134839;28;20465;-92
2022/08/24 20:05:53;;;;;;;0.45;0.28;;;25.80;68.60;;;;;;5132382;28;20019;-92
2022/08/24 20:08:20;;;;;;;0.00;0.00;;;25.80;68.40;;;;;;5130234;28;20114;-92
2022/08/24 20:10:46;;;;;;;0.00;0.00;;;25.80;68.10;;;;;;5134088;28;20022;-92
2022/08/24 20:13:12;;;;;;;0.00;0.00;;;25.80;67.80;;;;;;5134939;28;20114;-91
2022/08/24 20:15:39;;;;;;;0.00;0.00;;;25.80;67.80;;;;;;5134505;27;20533;-91
2022/08/24 20:18:08;;;;;;;0.00;0.00;;;25.70;67.80;;;;;;5133475;28;20031;-91
2022/08/24 20:20:35;;;;;;;0.00;0.00;;;25.80;67.80;;;;;;5133863;28;20385;-92
2022/08/24 20:23:05;;;;;;;0.00;0.00;;;25.70;67.90;;;;;;5134136;28;20828;-91
2022/08/24 20:25:34;;;;;;;0.00;0.00;;;25.70;67.80;;;;;;5133741;28;20024;-91
2022/08/24 20:28:39;;;;;;;0.20;0.10;;;25.70;68.00;;;;;;5133701;28;20443;-92
2022/08/24 20:31:06;;;;;;;0.00;0.00;;;25.70;68.10;;;;;;5133881;28;20075;-92
2022/08/24 20:33:32;;;;;;;0.20;0.10;;;25.60;67.80;;;;;;5134264;28;20026;-92
2022/08/24 20:35:58;;;;;;;0.75;0.43;;;25.70;67.80;;;;;;5133817;28;20069;-91
2022/08/24 20:38:24;;;;;;;0.00;0.00;;;25.60;67.90;;;;;;5133097;28;20058;-92
2022/08/24 20:40:51;;;;;;;0.00;0.00;;;25.60;67.90;;;;;;5133676;28;20114;-91
2022/08/24 20:43:17;;;;;;;0.20;0.20;;;25.60;67.90;;;;;;5133799;28;20048;-91
2022/08/24 20:45:44;;;;;;;0.00;0.00;;;25.60;68.00;;;;;;5134052;28;20023;-92
2022/08/24 20:48:11;;;;;;;0.00;0.00;;;25.60;68.00;;;;;;5132755;28;20046;-91
2022/08/24 20:50:37;;;;;;;0.00;0.00;;;25.60;68.10;;;;;;5135578;27;20015;-91
2022/08/24 20:53:04;;;;;;;0.00;0.00;;;25.60;68.00;;;;;;5136663;27;20031;-92
2022/08/24 20:55:30;;;;;;;0.20;0.20;;;25.50;68.00;;;;;;5137580;27;20350;-92
2022/08/24 20:58:02;;;;;;;0.10;0.10;;;25.50;68.00;;;;;;5136587;27;20150;-92
2022/08/24 21:00:28;;;;;;;0.00;0.00;;;25.50;68.20;;;;;;5138236;27;20037;-92
2022/08/24 21:02:54;;;;;;;0.00;0.00;;;25.50;68.20;;;;;;5137587;27;20019;-91
2022/08/24 21:05:20;;;;;;;0.00;0.00;;;25.50;68.30;;;;;;5137531;27;20072;-91
2022/08/24 21:07:48;;;;;;;0.00;0.00;;;25.50;68.40;;;;;;5136429;27;20118;-91
2022/08/24 21:10:20;;;;;;;0.00;0.00;;;25.50;68.40;;;;;;5137806;27;20023;-91
2022/08/24 21:12:47;;;;;;;0.00;0.00;;;25.50;68.30;;;;;;5136980;27;20473;-91
2022/08/24 21:15:13;;;;;;;0.08;0.08;;;25.50;68.40;;;;;;5134634;27;20023;-91
2022/08/24 21:17:40;;;;;;;0.22;0.22;;;25.50;68.40;;;;;;5136737;27;20079;-92
2022/08/24 21:20:07;;;;;;;0.00;0.00;;;25.50;68.50;;;;;;5136751;27;20027;-92
2022/08/24 21:22:35;;;;;;;0.32;0.22;;;25.40;68.50;;;;;;5137544;27;20027;-91
2022/08/24 21:25:03;;;;;;;0.03;0.03;;;25.40;68.60;;;;;;5136773;27;20020;-92